Terminal Aerodrome Forecast
Issued by NWS

Home | Current Version | Previous Version | Text Only | Print | Product List | Glossary On
Versions: 1 2 3 4 5 6 7 8 9 10 11 12 13 14 15 16 17
000
FTUS42 KTAE 012300
TAFVLD
TAF
KVLD 012335Z 0200/0224 04004KT 6SM BR BKN009
     FM020600 00000KT 1/2SM FG OVC002
     FM021600 VRB03KT 5SM BR OVC007=

USA.gov is the U.S. government's official web portal to all federal, state and local government web resources and services.